EHSC

Goeree Le Sea

Goeree Le Sea, The Netherlands
METAR EHSC 171355Z AUTO 27020KT 9999 ///////// 09/05 Q1018 W08/H13
Observed Flight Rules
Dec-17 @ 13:55 UTC (34 minutes ago)
Wind Visibility
270° at 20 knots 10,000+ meters
Temperatures Readings
Current 9°C / 48°F
Dewpoint 5°C / 41°F
Humidity 76%
Altimeter 30.06" Hg
Pressure 1018 hPa
Elevation 50
METAR EHSC 171355Z AUTO 27020KT 9999 ///////// 09/05 Q1018 W08/H13
Observed Flight Rules
Dec-17 @ 13:55 UTC
(34 minutes ago)
Wind Visibility
270° at 20 knots 10,000+ meters
Temperature Dewpoint
9°C / 48°F 5°C / 41°F
Humidity Altimeter Pressure
76% 30.06" Hg 1018 hPa